Time;durP1;ratioP1;P1;durP2;ratioP2;P2;SDS_P1;SDS_P2;PMS_P1;PMS_P2;Temp;Humidity;BMP_temperature;BMP_pressure;BME280_temperature;BME280_humidity;BME280_pressure;Samples;Min_cycle;Max_cycle;Signal;HPM_P1;HPM_P2
2022/08/24 00:01:04;;;;;;;65.20;61.47;;;16.60;99.90;;;;;;5012882;28;20191;-74
2022/08/24 00:03:31;;;;;;;46.20;43.57;;;16.50;99.90;;;;;;5012479;28;20188;-74
2022/08/24 00:05:58;;;;;;;136.57;129.10;;;16.40;99.90;;;;;;5012574;28;20262;-74
2022/08/24 00:08:24;;;;;;;143.93;136.47;;;16.40;99.90;;;;;;5012999;28;20207;-74
2022/08/24 00:10:51;;;;;;;187.20;177.20;;;16.40;99.90;;;;;;5013933;28;20529;-74
2022/08/24 00:13:17;;;;;;;217.03;205.43;;;16.40;99.90;;;;;;5013829;28;20190;-74
2022/08/24 00:15:44;;;;;;;260.87;245.43;;;16.30;99.90;;;;;;5014154;28;20195;-74
2022/08/24 00:18:10;;;;;;;252.50;238.53;;;16.20;99.90;;;;;;5012791;28;20188;-74
2022/08/24 00:20:36;;;;;;;271.80;257.10;;;16.20;99.90;;;;;;5013621;28;20194;-74
2022/08/24 00:23:03;;;;;;;328.20;309.37;;;16.10;99.90;;;;;;5012125;28;20620;-74
2022/08/24 00:25:30;;;;;;;336.20;317.47;;;16.10;99.90;;;;;;5013470;28;20207;-74
2022/08/24 00:27:56;;;;;;;329.50;311.93;;;16.00;99.90;;;;;;5012656;28;20180;-74
2022/08/24 00:30:23;;;;;;;352.80;333.67;;;16.10;99.90;;;;;;5013563;28;20172;-74
2022/08/24 00:32:49;;;;;;;396.37;374.17;;;16.10;99.90;;;;;;5011723;28;20188;-74
2022/08/24 00:35:17;;;;;;;360.10;340.27;;;16.00;99.90;;;;;;5013132;28;20658;-74
2022/08/24 00:37:45;;;;;;;229.97;217.83;;;15.90;99.90;;;;;;5011112;28;20273;-74
2022/08/24 00:40:19;;;;;;;118.83;112.63;;;15.70;99.90;;;;;;5013426;28;20233;-75
2022/08/24 00:42:46;;;;;;;108.17;102.57;;;15.70;99.90;;;;;;5011982;28;20579;-74
2022/08/24 00:45:15;;;;;;;97.33;92.30;;;15.60;99.90;;;;;;5013716;28;20302;-74
2022/08/24 00:48:13;;;;;;;80.33;75.80;;;15.50;99.90;;;;;;5011080;28;20199;-74
2022/08/24 00:51:15;;;;;;;71.30;67.47;;;15.50;99.90;;;;;;5004436;28;20196;-74
2022/08/24 00:53:49;;;;;;;79.13;74.77;;;15.50;99.90;;;;;;4998528;28;20286;-74
2022/08/24 00:56:26;;;;;;;80.27;76.00;;;15.50;99.90;;;;;;4993534;28;20601;-74
2022/08/24 00:58:59;;;;;;;94.77;89.67;;;15.50;99.90;;;;;;5007900;28;20191;-74
2022/08/24 01:01:27;;;;;;;106.13;100.43;;;15.50;99.90;;;;;;4994314;28;20541;-74
2022/08/24 01:03:54;;;;;;;116.50;110.40;;;15.50;99.90;;;;;;5012796;28;20599;-74
2022/08/24 01:06:20;;;;;;;97.57;91.63;;;15.40;99.90;;;;;;5012572;28;20223;-73
2022/08/24 01:08:46;;;;;;;72.20;68.37;;;15.20;99.90;;;;;;5011857;28;20327;-74
2022/08/24 01:11:16;;;;;;;72.93;68.87;;;15.30;99.90;;;;;;5011696;28;20191;-74
2022/08/24 01:13:45;;;;;;;107.23;101.27;;;15.40;99.90;;;;;;5012212;28;20203;-74
2022/08/24 01:16:14;;;;;;;137.20;129.97;;;15.40;99.90;;;;;;5012209;28;20215;-74
2022/08/24 01:18:49;;;;;;;106.43;100.30;;;15.40;99.90;;;;;;5010559;28;20183;-74
2022/08/24 01:21:17;;;;;;;90.33;85.43;;;15.40;99.90;;;;;;5011437;28;20186;-74
2022/08/24 01:23:46;;;;;;;97.30;91.93;;;15.30;99.90;;;;;;5010421;28;20184;-74
2022/08/24 01:26:19;;;;;;;114.80;108.60;;;15.30;99.90;;;;;;5012395;28;20290;-74
2022/08/24 01:28:49;;;;;;;121.87;115.53;;;15.30;99.90;;;;;;5011206;28;20207;-74
2022/08/24 01:31:21;;;;;;;120.07;113.73;;;15.10;99.90;;;;;;5011377;28;20267;-74
2022/08/24 01:33:53;;;;;;;125.60;119.07;;;15.00;99.90;;;;;;5011550;28;20327;-74
2022/08/24 01:36:30;;;;;;;174.13;165.23;;;15.10;99.90;;;;;;5011687;28;20226;-74
2022/08/24 01:39:02;;;;;;;180.23;170.90;;;15.10;99.90;;;;;;5011634;28;20186;-74
2022/08/24 01:41:28;;;;;;;195.83;185.67;;;15.10;99.90;;;;;;5012067;28;20187;-74
2022/08/24 01:43:55;;;;;;;215.87;204.77;;;15.10;99.90;;;;;;5010791;28;20237;-74
2022/08/24 01:46:21;;;;;;;223.37;211.90;;;15.00;99.90;;;;;;5012120;28;20265;-74
2022/08/24 01:48:46;;;;;;;202.70;192.03;;;15.00;99.90;;;;;;5010752;28;20779;-74
2022/08/24 01:51:13;;;;;;;231.63;219.53;;;14.90;99.90;;;;;;5012084;28;20672;-74
2022/08/24 01:53:38;;;;;;;225.87;213.90;;;14.90;99.90;;;;;;5010955;28;20199;-74
2022/08/24 01:56:04;;;;;;;221.47;209.77;;;14.90;99.90;;;;;;5012386;28;20204;-74
2022/08/24 01:58:31;;;;;;;211.20;199.83;;;14.90;99.90;;;;;;5011899;28;20245;-74
2022/08/24 02:00:57;;;;;;;225.07;213.33;;;14.90;99.90;;;;;;5011947;28;20184;-74
2022/08/24 02:03:23;;;;;;;243.20;230.33;;;14.90;99.90;;;;;;5011549;28;20183;-74
2022/08/24 02:05:49;;;;;;;241.43;228.87;;;15.00;99.90;;;;;;5011472;28;20211;-74
2022/08/24 02:08:15;;;;;;;200.10;190.00;;;15.00;99.90;;;;;;5010920;28;20207;-74
2022/08/24 02:10:41;;;;;;;190.17;180.37;;;15.00;99.90;;;;;;5011789;28;20184;-74
2022/08/24 02:13:07;;;;;;;167.30;158.73;;;14.90;99.90;;;;;;5011088;28;20172;-74
2022/08/24 02:15:38;;;;;;;165.50;157.00;;;14.90;99.90;;;;;;5011721;28;20202;-74
2022/08/24 02:18:09;;;;;;;129.93;123.20;;;14.70;99.90;;;;;;5013173;28;20191;-74
2022/08/24 02:20:35;;;;;;;142.70;135.07;;;14.70;99.90;;;;;;5029882;28;20190;-74
2022/08/24 02:23:03;;;;;;;113.23;107.37;;;14.70;99.90;;;;;;5017696;28;20184;-74
2022/08/24 02:25:29;;;;;;;176.47;167.10;;;14.60;99.90;;;;;;5010348;28;20211;-74
2022/08/24 02:27:57;;;;;;;262.03;247.17;;;14.50;99.90;;;;;;5010552;28;20644;-74
2022/08/24 02:30:22;;;;;;;292.70;276.03;;;14.40;99.90;;;;;;5011790;28;20619;-74
2022/08/24 02:32:48;;;;;;;330.50;311.73;;;14.40;99.90;;;;;;5009616;28;20271;-74
2022/08/24 02:35:16;;;;;;;280.97;264.90;;;14.40;99.90;;;;;;5011096;28;20183;-74
2022/08/24 02:37:42;;;;;;;249.77;235.83;;;14.40;99.90;;;;;;5009138;28;20223;-73
2022/08/24 02:40:09;;;;;;;311.20;293.57;;;14.30;99.90;;;;;;5011303;28;20188;-73
2022/08/24 02:42:35;;;;;;;366.70;345.60;;;14.40;99.90;;;;;;5009480;28;20176;-73
2022/08/24 02:45:02;;;;;;;383.70;361.50;;;14.40;99.90;;;;;;5010999;28;20242;-74
2022/08/24 02:47:28;;;;;;;380.30;358.20;;;14.40;99.90;;;;;;5010617;28;20558;-73
2022/08/24 02:49:53;;;;;;;339.87;320.13;;;14.40;99.90;;;;;;5010291;28;20222;-74
2022/08/24 02:52:19;;;;;;;345.33;325.60;;;14.30;99.90;;;;;;5010777;28;20180;-74
2022/08/24 02:54:45;;;;;;;353.87;333.77;;;14.30;99.90;;;;;;5011042;28;20176;-74
2022/08/24 02:57:11;;;;;;;290.23;273.37;;;14.20;99.90;;;;;;5009931;28;20204;-74
2022/08/24 02:59:37;;;;;;;265.50;250.40;;;14.20;99.90;;;;;;5011469;28;20188;-74
2022/08/24 03:02:04;;;;;;;131.00;123.27;;;14.10;99.90;;;;;;5013463;28;20179;-73
2022/08/24 03:04:30;;;;;;;89.03;83.87;;;14.10;99.90;;;;;;5013791;28;20230;-73
2022/08/24 03:06:57;;;;;;;110.90;104.43;;;14.10;99.90;;;;;;5013835;28;20218;-74
2022/08/24 03:09:24;;;;;;;96.60;91.43;;;14.00;99.90;;;;;;5006298;28;20176;-74
2022/08/24 03:11:50;;;;;;;136.63;128.93;;;14.00;99.90;;;;;;5014628;28;20191;-74
2022/08/24 03:14:17;;;;;;;127.73;120.93;;;14.00;99.90;;;;;;5014816;28;20637;-74
2022/08/24 03:16:42;;;;;;;164.50;155.53;;;13.90;99.90;;;;;;5017020;28;20210;-74
2022/08/24 03:19:08;;;;;;;119.10;112.67;;;13.90;99.90;;;;;;5015249;28;20187;-74
2022/08/24 03:21:35;;;;;;;74.67;70.37;;;13.80;99.90;;;;;;5014195;28;20226;-74
2022/08/24 03:24:00;;;;;;;53.80;50.77;;;13.70;99.90;;;;;;5013995;28;20211;-74
2022/08/24 03:26:26;;;;;;;47.40;44.67;;;13.70;99.90;;;;;;5013033;28;20244;-74
2022/08/24 03:28:52;;;;;;;33.90;31.97;;;13.70;99.90;;;;;;5013245;28;20175;-74
2022/08/24 03:31:18;;;;;;;104.40;98.93;;;13.70;99.90;;;;;;5014059;28;20176;-74
2022/08/24 03:33:44;;;;;;;84.93;80.53;;;13.70;99.90;;;;;;5013905;28;20259;-73
2022/08/24 03:36:10;;;;;;;89.73;84.93;;;13.70;99.90;;;;;;5035638;23;20194;-70
2022/08/24 03:38:36;;;;;;;132.23;125.23;;;13.70;99.90;;;;;;5033080;28;20617;-71
2022/08/24 03:41:02;;;;;;;95.17;90.00;;;13.70;99.90;;;;;;5032971;28;20171;-70
2022/08/24 03:46:24;;;;;;;86.83;82.20;;;13.70;99.90;;;;;;5033718;28;20215;-71
2022/08/24 03:48:51;;;;;;;113.20;107.00;;;13.70;99.90;;;;;;5033530;28;20209;-71
2022/08/24 03:51:19;;;;;;;77.33;73.27;;;13.70;99.90;;;;;;5033762;28;20175;-71
2022/08/24 03:53:45;;;;;;;32.33;30.57;;;13.70;99.90;;;;;;5032008;28;20553;-71
2022/08/24 03:56:11;;;;;;;38.67;36.30;;;13.70;99.90;;;;;;5044930;28;20190;-71
2022/08/24 03:58:40;;;;;;;54.33;51.27;;;13.60;99.90;;;;;;5052448;28;20270;-71
2022/08/24 04:01:07;;;;;;;78.07;74.07;;;13.70;99.90;;;;;;5051775;28;20639;-71
2022/08/24 04:03:39;;;;;;;74.30;70.23;;;13.60;99.90;;;;;;5052947;28;20182;-71
2022/08/24 04:06:06;;;;;;;107.97;102.27;;;13.60;99.90;;;;;;5051917;28;20228;-71
2022/08/24 04:08:33;;;;;;;123.70;116.87;;;13.50;99.90;;;;;;5052227;28;20178;-71
2022/08/24 04:11:00;;;;;;;90.47;85.40;;;13.40;99.90;;;;;;5052618;28;20182;-71
2022/08/24 04:13:30;;;;;;;77.60;72.93;;;13.40;99.90;;;;;;5052704;28;20186;-74
2022/08/24 04:15:57;;;;;;;76.43;72.33;;;13.40;99.90;;;;;;5052886;28;20187;-74
2022/08/24 04:18:23;;;;;;;81.27;77.07;;;13.30;99.90;;;;;;5038471;28;20613;-73
2022/08/24 04:20:49;;;;;;;78.43;74.20;;;13.40;99.90;;;;;;5032758;28;20237;-74
2022/08/24 04:23:16;;;;;;;79.93;75.47;;;13.30;99.90;;;;;;5032526;28;20201;-73
2022/08/24 04:25:45;;;;;;;74.27;70.37;;;13.30;99.90;;;;;;5031948;28;20210;-74
2022/08/24 04:28:12;;;;;;;53.50;50.53;;;13.20;99.90;;;;;;5031378;28;20605;-74
2022/08/24 04:30:42;;;;;;;48.53;45.40;;;13.20;99.90;;;;;;5032907;28;20274;-76
2022/08/24 04:33:10;;;;;;;63.93;60.30;;;13.30;99.90;;;;;;5031967;28;20186;-73
2022/08/24 04:35:44;;;;;;;70.07;66.07;;;13.40;99.90;;;;;;5033503;28;20190;-74
2022/08/24 04:38:10;;;;;;;75.57;71.20;;;13.40;99.90;;;;;;5018395;28;20301;-73
2022/08/24 04:40:41;;;;;;;102.33;96.83;;;13.40;99.90;;;;;;5031910;28;20183;-74
2022/08/24 04:43:07;;;;;;;81.20;76.90;;;13.40;99.90;;;;;;5032109;28;20198;-75
2022/08/24 04:45:38;;;;;;;81.73;77.47;;;13.40;99.90;;;;;;5035873;28;20242;-74
2022/08/24 04:48:04;;;;;;;75.37;71.23;;;13.40;99.90;;;;;;5029917;28;20206;-73
2022/08/24 04:50:34;;;;;;;83.60;79.27;;;13.50;99.90;;;;;;5031089;28;20531;-73
2022/08/24 04:53:04;;;;;;;65.97;62.50;;;13.50;99.90;;;;;;5030933;28;20189;-73
2022/08/24 04:55:31;;;;;;;72.07;68.27;;;13.60;99.90;;;;;;5031692;28;20563;-74
2022/08/24 04:57:57;;;;;;;61.63;58.43;;;13.70;99.90;;;;;;5031223;28;20612;-73
2022/08/24 05:00:24;;;;;;;69.37;65.37;;;13.70;99.90;;;;;;5031130;28;20202;-73
2022/08/24 05:02:50;;;;;;;74.40;70.23;;;13.90;99.90;;;;;;5031412;28;20185;-74
2022/08/24 05:05:15;;;;;;;69.43;65.53;;;14.00;99.90;;;;;;5031946;28;20191;-74
2022/08/24 05:07:43;;;;;;;29.60;28.00;;;14.10;99.90;;;;;;5030102;28;20301;-74
2022/08/24 05:10:10;;;;;;;73.90;70.10;;;14.20;99.90;;;;;;5030230;28;20178;-74
2022/08/24 05:12:37;;;;;;;92.47;87.57;;;14.30;99.90;;;;;;5031750;28;20203;-74
2022/08/24 05:15:04;;;;;;;21.40;20.03;;;14.50;99.90;;;;;;5031697;28;20571;-71
2022/08/24 05:17:30;;;;;;;19.23;18.10;;;14.80;99.90;;;;;;5030262;28;20206;-71
2022/08/24 05:19:57;;;;;;;12.07;11.13;;;15.10;99.90;;;;;;5031924;28;20535;-71
2022/08/24 05:22:24;;;;;;;48.40;45.70;;;15.50;99.90;;;;;;5030718;28;20179;-71
2022/08/24 05:24:50;;;;;;;18.07;17.10;;;16.00;99.90;;;;;;5029786;28;20629;-71
2022/08/24 05:27:17;;;;;;;26.37;24.47;;;16.40;99.90;;;;;;5029723;28;20217;-72
2022/08/24 05:29:44;;;;;;;48.27;45.67;;;16.80;99.90;;;;;;5033912;28;20600;-71
2022/08/24 05:32:10;;;;;;;42.40;40.00;;;17.20;99.90;;;;;;5030798;28;20179;-71
2022/08/24 05:34:37;;;;;;;14.40;13.50;;;17.50;99.90;;;;;;5031527;28;20175;-71
2022/08/24 05:37:03;;;;;;;10.23;9.43;;;17.80;99.90;;;;;;5030458;28;20356;-71
2022/08/24 05:39:30;;;;;;;11.27;10.40;;;18.00;99.90;;;;;;5029005;28;20278;-71
2022/08/24 05:41:58;;;;;;;8.13;7.63;;;18.20;99.90;;;;;;5031255;28;20179;-73
2022/08/24 05:44:24;;;;;;;42.90;40.63;;;18.50;99.90;;;;;;5031176;28;20664;-73
2022/08/24 05:46:50;;;;;;;81.57;77.50;;;18.80;99.90;;;;;;5029305;28;20298;-73
2022/08/24 05:49:16;;;;;;;57.07;53.90;;;19.10;99.90;;;;;;5030946;28;20216;-73
2022/08/24 05:51:42;;;;;;;19.23;17.92;;;19.30;99.90;;;;;;5029999;28;20183;-71
2022/08/24 05:54:09;;;;;;;24.17;22.65;;;19.60;99.90;;;;;;5029025;28;20187;-72
2022/08/24 05:56:35;;;;;;;43.60;41.22;;;19.90;99.90;;;;;;5031115;28;20550;-71
2022/08/24 05:59:01;;;;;;;14.30;13.50;;;20.10;99.90;;;;;;5030031;28;20191;-73
2022/08/24 06:01:27;;;;;;;10.98;10.18;;;20.40;99.90;;;;;;5029083;28;20274;-72
2022/08/24 06:03:55;;;;;;;18.50;17.30;;;20.60;99.90;;;;;;5030736;28;20191;-71
2022/08/24 06:06:22;;;;;;;10.93;10.27;;;21.00;99.90;;;;;;5031540;28;20210;-73
2022/08/24 06:08:51;;;;;;;23.42;22.02;;;21.20;99.90;;;;;;5029207;28;20187;-73
2022/08/24 06:11:29;;;;;;;52.70;49.95;;;21.70;99.90;;;;;;5031052;28;20228;-73
2022/08/24 06:13:58;;;;;;;20.73;19.48;;;22.10;99.90;;;;;;5031143;28;20269;-71
2022/08/24 06:16:25;;;;;;;8.30;7.70;;;22.50;99.90;;;;;;5029983;28;20588;-70
2022/08/24 06:18:52;;;;;;;6.75;6.25;;;22.70;99.90;;;;;;5029879;28;20616;-71
2022/08/24 06:21:21;;;;;;;7.93;7.32;;;22.90;99.90;;;;;;5030792;28;20209;-71
2022/08/24 06:23:47;;;;;;;8.13;7.60;;;23.00;99.90;;;;;;5030068;28;20182;-71
2022/08/24 06:28:59;;;;;;;11.73;10.93;;;23.50;99.90;;;;;;5028048;28;20189;-72
2022/08/24 06:31:26;;;;;;;8.90;8.40;;;23.70;99.90;;;;;;5028923;28;20599;-72
2022/08/24 06:33:53;;;;;;;8.68;7.00;;;24.00;99.90;;;;;;5030686;28;20214;-72
2022/08/24 06:36:20;;;;;;;7.22;6.72;;;24.10;99.90;;;;;;5030936;28;20265;-73
2022/08/24 06:38:46;;;;;;;10.85;6.90;;;24.30;99.90;;;;;;5030222;28;20656;-73
2022/08/24 06:41:13;;;;;;;7.63;7.10;;;24.50;99.90;;;;;;5031017;28;20698;-73
2022/08/24 06:43:39;;;;;;;6.53;6.13;;;24.50;99.90;;;;;;5029717;28;20281;-72
2022/08/24 06:46:05;;;;;;;6.43;5.97;;;24.30;99.90;;;;;;5030945;28;20289;-72
2022/08/24 06:48:31;;;;;;;6.45;5.95;;;24.40;99.90;;;;;;5030201;28;20269;-72
2022/08/24 06:50:58;;;;;;;6.25;5.75;;;24.20;99.90;;;;;;5031107;28;20680;-72
2022/08/24 06:53:25;;;;;;;7.63;7.13;;;24.20;99.90;;;;;;5030949;28;20179;-74
2022/08/24 06:55:54;;;;;;;5.93;5.43;;;24.20;99.90;;;;;;5031344;28;20656;-72
2022/08/24 06:58:21;;;;;;;6.78;6.07;;;24.40;99.90;;;;;;5030445;28;20577;-73
2022/08/24 07:00:47;;;;;;;6.28;5.70;;;24.70;99.90;;;;;;5031416;28;20604;-72
2022/08/24 07:03:14;;;;;;;6.70;6.07;;;24.60;99.90;;;;;;5030810;28;20647;-72
2022/08/24 07:05:40;;;;;;;5.88;5.45;;;24.60;99.80;;;;;;5029814;28;20717;-72
2022/08/24 07:08:07;;;;;;;5.97;5.68;;;24.60;99.90;;;;;;5029859;28;20687;-73
2022/08/24 07:10:33;;;;;;;7.13;6.38;;;24.70;99.90;;;;;;5030842;28;20212;-73
2022/08/24 07:13:00;;;;;;;7.40;6.60;;;25.30;99.10;;;;;;5030703;28;20214;-72
2022/08/24 07:15:26;;;;;;;8.60;8.18;;;25.40;98.60;;;;;;5030690;28;20211;-73
2022/08/24 07:17:52;;;;;;;17.25;16.17;;;25.70;98.10;;;;;;5028664;28;20257;-72
2022/08/24 07:20:18;;;;;;;14.18;13.13;;;25.70;96.40;;;;;;5030678;28;20210;-72
2022/08/24 07:22:44;;;;;;;14.88;14.07;;;25.60;97.20;;;;;;5030538;28;20213;-73
2022/08/24 07:25:11;;;;;;;13.70;13.00;;;25.70;97.00;;;;;;5029385;28;20175;-73
2022/08/24 07:27:38;;;;;;;27.17;25.83;;;25.80;96.30;;;;;;5029664;28;20676;-73
2022/08/24 07:30:05;;;;;;;24.17;22.88;;;26.30;95.80;;;;;;5030716;28;20175;-73
2022/08/24 07:32:32;;;;;;;25.50;24.02;;;26.70;94.20;;;;;;5030597;28;20179;-73
2022/08/24 07:34:59;;;;;;;25.73;24.20;;;26.80;94.20;;;;;;5030557;28;20182;-72
2022/08/24 07:37:25;;;;;;;17.85;16.95;;;27.20;92.90;;;;;;5028423;28;20581;-72
2022/08/24 07:39:51;;;;;;;8.15;7.75;;;27.50;92.60;;;;;;5030765;28;20179;-73
2022/08/24 07:42:17;;;;;;;15.07;14.05;;;27.40;90.60;;;;;;5030572;28;20187;-73
2022/08/24 07:44:43;;;;;;;16.95;16.13;;;26.90;91.70;;;;;;5029395;28;20266;-72
2022/08/24 07:47:09;;;;;;;8.30;7.68;;;27.10;91.00;;;;;;5032612;28;20699;-73
2022/08/24 07:49:35;;;;;;;7.07;6.20;;;27.60;90.20;;;;;;5034101;28;20178;-72
2022/08/24 07:52:01;;;;;;;8.73;8.23;;;28.00;89.50;;;;;;5034120;28;20183;-72
2022/08/24 07:54:27;;;;;;;7.90;7.50;;;27.80;86.20;;;;;;5034006;28;20175;-72
2022/08/24 07:56:53;;;;;;;6.00;5.70;;;27.60;86.70;;;;;;5031877;28;20203;-71
2022/08/24 07:59:21;;;;;;;6.10;5.70;;;27.40;87.40;;;;;;5033790;28;20314;-72
2022/08/24 08:01:48;;;;;;;6.25;5.82;;;27.90;85.90;;;;;;5032998;28;20193;-72
2022/08/24 08:04:15;;;;;;;6.18;5.68;;;28.10;84.00;;;;;;5033882;28;20190;-72
2022/08/24 08:06:41;;;;;;;7.22;6.82;;;28.10;82.90;;;;;;5033408;28;20223;-72
2022/08/24 08:09:07;;;;;;;7.32;6.75;;;28.40;81.90;;;;;;5033343;28;20182;-72
2022/08/24 08:11:33;;;;;;;6.38;5.32;;;28.70;80.90;;;;;;5033597;28;20214;-71
2022/08/24 08:14:00;;;;;;;6.05;5.50;;;28.80;79.30;;;;;;5033580;28;20225;-72
2022/08/24 08:16:26;;;;;;;6.75;6.18;;;28.50;80.50;;;;;;5034246;28;20289;-71
2022/08/24 08:18:52;;;;;;;8.35;7.85;;;27.80;80.10;;;;;;5033244;28;20741;-73
2022/08/24 08:24:15;;;;;;;6.75;6.25;;;27.60;81.30;;;;;;5033262;28;20681;-71
2022/08/24 08:26:42;;;;;;;8.20;7.80;;;28.00;80.40;;;;;;5033253;28;20222;-71
2022/08/24 08:29:09;;;;;;;6.63;6.30;;;28.40;79.10;;;;;;5025036;28;20210;-71
2022/08/24 08:31:36;;;;;;;7.93;7.38;;;28.10;78.00;;;;;;5027892;28;20191;-71
2022/08/24 08:34:04;;;;;;;7.15;6.75;;;28.00;78.30;;;;;;5031526;28;20652;-71
2022/08/24 08:36:30;;;;;;;6.95;6.55;;;28.30;77.60;;;;;;5030935;28;20221;-71
2022/08/24 08:38:56;;;;;;;6.28;5.97;;;28.50;77.30;;;;;;5032378;28;20210;-72
2022/08/24 08:41:57;;;;;;;6.38;5.88;;;28.60;76.40;;;;;;5031343;28;20183;-72
2022/08/24 08:44:54;;;;;;;6.82;5.28;;;28.80;75.70;;;;;;5026056;28;21000;-71
2022/08/24 08:47:36;;;;;;;7.65;6.53;;;29.50;74.50;;;;;;5011738;28;20582;-72
2022/08/24 08:50:07;;;;;;;14.15;13.27;;;30.00;71.40;;;;;;5012348;28;20249;-71
2022/08/24 08:53:01;;;;;;;20.70;19.67;;;30.30;70.00;;;;;;5030735;28;20179;-72
2022/08/24 08:55:52;;;;;;;15.60;14.70;;;30.30;69.60;;;;;;5031495;28;20651;-72
2022/08/24 08:58:37;;;;;;;19.17;18.08;;;29.70;70.50;;;;;;5030379;28;20609;-72
2022/08/24 09:01:17;;;;;;;17.23;16.42;;;29.70;69.80;;;;;;5031832;28;20241;-73
2022/08/24 09:04:10;;;;;;;17.63;16.83;;;29.70;70.50;;;;;;5011827;28;20188;-75
2022/08/24 09:07:10;;;;;;;13.75;12.95;;;29.80;70.60;;;;;;5011172;28;20215;-72
2022/08/24 09:09:36;;;;;;;7.22;6.82;;;29.60;71.40;;;;;;5011349;28;20210;-71
2022/08/24 09:12:14;;;;;;;7.53;7.22;;;29.30;71.70;;;;;;5012515;28;20180;-71
2022/08/24 09:14:58;;;;;;;4.88;4.47;;;29.10;72.20;;;;;;5012763;28;20223;-72
2022/08/24 09:17:56;;;;;;;5.72;5.43;;;28.90;74.20;;;;;;5011643;28;20302;-72
2022/08/24 09:20:25;;;;;;;5.82;5.53;;;29.40;74.10;;;;;;5008906;28;20279;-71
2022/08/24 09:23:07;;;;;;;6.32;6.03;;;29.80;72.50;;;;;;5014808;28;20184;-71
2022/08/24 09:26:02;;;;;;;6.15;5.85;;;29.60;72.70;;;;;;5027529;28;20290;-71
2022/08/24 09:28:40;;;;;;;6.63;6.22;;;29.90;72.30;;;;;;5025684;28;20266;-71
2022/08/24 09:31:24;;;;;;;5.85;5.55;;;29.60;72.00;;;;;;5030912;28;20185;-72
2022/08/24 09:34:05;;;;;;;6.03;5.72;;;29.90;72.50;;;;;;5030642;28;20659;-72
2022/08/24 09:36:48;;;;;;;6.63;6.22;;;30.20;71.10;;;;;;5048859;23;20300;-72
2022/08/24 09:39:34;;;;;;;16.20;15.50;;;30.70;68.80;;;;;;5011075;28;20184;-72
2022/08/24 09:42:02;;;;;;;21.48;20.45;;;31.30;68.40;;;;;;5012148;28;20184;-72
2022/08/24 09:44:37;;;;;;;45.50;43.30;;;31.50;68.60;;;;;;5011753;28;20180;-74
2022/08/24 09:47:19;;;;;;;21.52;20.55;;;31.50;66.90;;;;;;5009579;28;20305;-73
2022/08/24 09:49:48;;;;;;;39.60;37.40;;;31.50;66.40;;;;;;5012031;28;20187;-74
2022/08/24 09:52:17;;;;;;;15.75;14.95;;;31.10;68.70;;;;;;5010344;28;20180;-74
2022/08/24 09:55:20;;;;;;;13.32;12.68;;;31.20;64.70;;;;;;5011830;28;20234;-74
2022/08/24 09:58:14;;;;;;;30.90;29.48;;;30.90;65.50;;;;;;5010503;28;20199;-76
2022/08/24 10:00:52;;;;;;;22.88;21.83;;;30.80;66.00;;;;;;5001988;28;20195;-77
2022/08/24 10:03:40;;;;;;;11.25;10.77;;;31.30;64.60;;;;;;5025081;28;20179;-76
2022/08/24 10:06:19;;;;;;;21.00;19.98;;;30.90;62.30;;;;;;5035905;28;20278;-78
2022/08/24 10:09:18;;;;;;;20.20;19.05;;;30.70;64.40;;;;;;5031968;28;20179;-78
2022/08/24 10:12:18;;;;;;;14.77;14.07;;;31.20;63.60;;;;;;5034403;28;20183;-78
2022/08/24 10:14:53;;;;;;;7.35;7.05;;;31.80;62.50;;;;;;5040646;28;20601;-78
2022/08/24 10:17:34;;;;;;;6.65;6.25;;;32.60;59.60;;;;;;5036866;28;20614;-76
2022/08/24 10:20:03;;;;;;;6.78;6.47;;;32.60;60.00;;;;;;5032735;28;20190;-77
2022/08/24 10:22:52;;;;;;;11.02;10.45;;;32.10;60.60;;;;;;5032294;28;20183;-77
2022/08/24 10:25:41;;;;;;;11.10;10.60;;;32.60;60.10;;;;;;5030817;28;20206;-77
2022/08/24 10:28:58;;;;;;;104.07;99.25;;;32.80;58.90;;;;;;5031221;28;20210;-77
2022/08/24 10:31:33;;;;;;;154.77;147.32;;;33.30;56.50;;;;;;4989422;28;20198;-77
2022/08/24 10:33:59;;;;;;;220.98;210.13;;;33.40;56.10;;;;;;5047494;28;20178;-77
2022/08/24 10:36:25;;;;;;;212.77;202.48;;;33.80;54.70;;;;;;5035492;28;20182;-77
2022/08/24 10:45:48;;;;;;;140.98;134.35;;;34.80;52.70;;;;;;5032075;28;20187;-78
2022/08/24 10:48:29;;;;;;;164.02;156.18;;;35.20;51.30;;;;;;5029991;28;20198;-78
2022/08/24 10:51:18;;;;;;;169.98;161.90;;;35.00;50.00;;;;;;5032460;28;20385;-77
2022/08/24 10:53:49;;;;;;;118.78;113.13;;;34.20;49.90;;;;;;4991496;28;20187;-77
2022/08/24 10:56:28;;;;;;;149.77;142.63;;;33.40;51.30;;;;;;5032296;28;20258;-78
2022/08/24 10:59:15;;;;;;;185.23;176.00;;;33.30;52.80;;;;;;5031241;28;20217;-78
2022/08/24 11:02:06;;;;;;;157.68;149.80;;;33.60;53.40;;;;;;5031304;28;20205;-77
2022/08/24 11:04:34;;;;;;;193.32;184.05;;;33.50;53.20;;;;;;5032495;28;20744;-77
2022/08/24 11:07:21;;;;;;;172.02;163.80;;;33.80;53.30;;;;;;5029961;28;20442;-77
2022/08/24 11:09:52;;;;;;;129.85;123.63;;;34.30;52.70;;;;;;5032562;28;20237;-77
2022/08/24 11:12:35;;;;;;;134.90;128.48;;;34.10;48.30;;;;;;5032019;28;20187;-77
2022/08/24 11:15:16;;;;;;;147.05;140.05;;;34.20;48.80;;;;;;5033485;28;20186;-77
2022/08/24 11:17:52;;;;;;;112.70;107.38;;;34.00;48.40;;;;;;5037161;28;20210;-77
2022/08/24 11:20:27;;;;;;;140.77;134.18;;;33.20;48.40;;;;;;5035170;28;20615;-77
2022/08/24 11:23:03;;;;;;;122.68;116.93;;;33.00;45.70;;;;;;5040571;28;20598;-77
2022/08/24 11:25:33;;;;;;;120.32;114.63;;;32.70;46.50;;;;;;5038848;28;20182;-77
2022/08/24 11:28:03;;;;;;;124.63;118.75;;;33.00;46.30;;;;;;5013324;28;20695;-77
2022/08/24 11:30:30;;;;;;;136.02;129.63;;;33.10;46.80;;;;;;5000972;28;20184;-78
2022/08/24 11:33:02;;;;;;;118.32;112.65;;;33.00;46.60;;;;;;5006275;28;20184;-76
2022/08/24 11:35:31;;;;;;;103.53;98.63;;;33.10;47.70;;;;;;5033409;28;20183;-77
2022/08/24 11:38:07;;;;;;;113.45;108.18;;;33.30;48.80;;;;;;5038458;28;20265;-77
2022/08/24 11:40:39;;;;;;;111.45;106.13;;;33.00;48.60;;;;;;5039664;28;20221;-77
2022/08/24 11:43:05;;;;;;;182.18;173.45;;;33.50;47.10;;;;;;5037589;28;20545;-78
2022/08/24 11:45:43;;;;;;;162.38;154.70;;;33.70;44.50;;;;;;5034945;28;20199;-78
2022/08/24 11:48:28;;;;;;;139.85;133.20;;;33.60;44.60;;;;;;5036822;28;20604;-76
2022/08/24 11:51:07;;;;;;;133.93;127.65;;;33.30;45.40;;;;;;5043776;28;20247;-78
2022/08/24 11:53:45;;;;;;;160.07;152.48;;;33.40;46.30;;;;;;5037743;28;20671;-78
2022/08/24 11:56:20;;;;;;;188.25;179.18;;;34.10;46.60;;;;;;5037453;28;20283;-78
2022/08/24 11:58:55;;;;;;;202.95;193.13;;;35.00;45.50;;;;;;5035210;28;20650;-78
2022/08/24 12:01:33;;;;;;;146.77;139.88;;;35.60;43.80;;;;;;5037498;28;20197;-78
2022/08/24 12:04:16;;;;;;;155.85;148.45;;;35.60;43.30;;;;;;5036099;28;20269;-78
2022/08/24 12:07:06;;;;;;;186.25;177.40;;;35.40;43.40;;;;;;5035034;28;20278;-78
2022/08/24 12:09:40;;;;;;;180.50;171.77;;;35.20;44.50;;;;;;5040577;28;20182;-77
2022/08/24 12:12:32;;;;;;;186.35;177.40;;;35.20;44.30;;;;;;5045086;28;20318;-77
2022/08/24 12:15:11;;;;;;;193.10;183.88;;;34.90;44.90;;;;;;5038279;28;20659;-77
2022/08/24 12:17:46;;;;;;;202.65;192.70;;;35.00;44.90;;;;;;5035783;28;20230;-76
2022/08/24 12:20:37;;;;;;;206.80;196.88;;;34.20;45.50;;;;;;5035991;28;20181;-76
2022/08/24 12:23:18;;;;;;;173.45;165.07;;;34.20;46.20;;;;;;5037515;28;20209;-76
2022/08/24 12:26:01;;;;;;;205.55;195.50;;;34.10;47.50;;;;;;5038415;28;20222;-76
2022/08/24 12:28:33;;;;;;;193.40;184.05;;;34.50;47.20;;;;;;5034050;28;20195;-77
2022/08/24 12:31:10;;;;;;;235.15;223.77;;;34.60;47.80;;;;;;5032973;28;20202;-77
2022/08/24 12:33:38;;;;;;;206.60;196.48;;;34.60;46.80;;;;;;5033234;28;20624;-76
2022/08/24 12:36:16;;;;;;;220.40;209.73;;;34.90;44.90;;;;;;5034517;28;20183;-78
2022/08/24 12:38:50;;;;;;;181.70;172.88;;;34.80;46.70;;;;;;5034109;28;20183;-77
2022/08/24 12:41:23;;;;;;;190.07;181.00;;;34.40;49.20;;;;;;5034632;28;20183;-78
2022/08/24 12:43:54;;;;;;;221.95;210.95;;;34.70;49.00;;;;;;5033050;28;20187;-76
2022/08/24 12:46:25;;;;;;;264.27;251.25;;;35.10;48.50;;;;;;5032521;28;20721;-77
2022/08/24 12:48:55;;;;;;;260.40;247.57;;;36.10;46.30;;;;;;5032051;28;20190;-76
2022/08/24 12:51:33;;;;;;;302.05;286.85;;;35.90;46.10;;;;;;5030790;28;20236;-76
2022/08/24 12:54:30;;;;;;;277.90;264.23;;;35.70;47.90;;;;;;5021235;28;20640;-77
2022/08/24 12:57:08;;;;;;;249.48;237.27;;;36.10;46.50;;;;;;4995992;28;20643;-78
2022/08/24 12:59:50;;;;;;;317.52;301.67;;;35.50;46.60;;;;;;5014062;28;20183;-78